Hagerstown Regional Richard A Henson Field
KHGR : rendu visible

Aérodrome :











RETROUVEZ-NOUS SUR...

 
LOGIN :

S'inscrire | Disclaimer

   EN    FR    IT 

 









Légende :    VFR   VFR Marginal   IFR   IFR Intensif   IFR Très Intensif
Visi : 
Plafond : 
>= 8 km
>= 3000ft
5 à 8 km
1000 à 3000 ft
1500m à 5 km
500 à 1000 ft
800 à 1500m
200 à 500 ft
< 800m
< 200 ft
Symboles :   Orages  Brouillard  Fortes neiges  Fortes précipitations  Vent > 20 kt






- Altitude de l'aérodrome : 703 ft
- Code IATA : HGR


KHGR - Hagerstown Regional Richard A Henson Field

DERNIER METAR :
  • 171153Z 35008KT 10SM OVC034 M02/M13 A3030 RMK AO2 SLP279 T10171128 11006 21039 56005

METARs EXPIRÉS :
  • 171125Z AUTO 35007KT 10SM OVC030 M02/M13 A3030 RMK AO2 T10171128
  • 171053Z AUTO 34008KT 10SM OVC029 M02/M13 A3031 RMK AO2 SLP282 T10171128
  • 171036Z AUTO 35008KT 10SM BKN029 OVC035 M02/M13 A3031 RMK AO2 T10171128
  • 170953Z AUTO 35008KT 10SM OVC030 M02/M13 A3031 RMK AO2 SLP281 T10221133

TAF N/A



MET'MAP, la Météo Aéronautique d'un coup d'oeil ! - Copyright ORBIFLY Décembre 2007 - Disclaimer

ORBIFLY MET'MAP TEAM :

Programmation & Développement : Alexandra Zaïnal
Conception & Développement : Baudouin d'Aumeries
Co-Programmation & Développement : Marc-Olivier Méhu
Soutien technique & logistique : Manuel Goepfert

Contact : metmap@orbifly.com




SOURCES & CREDITS :

   NOAA       Earth
Advisory